createdAt,value
2022-11-05T00:01:51.815Z,51.69
2022-11-05T00:04:18.517Z,52.17
2022-11-05T00:06:45.163Z,51.94
2022-11-05T00:09:11.803Z,51.71
2022-11-05T00:11:38.471Z,51.64
2022-11-05T00:14:05.138Z,51.74
2022-11-05T00:16:31.786Z,51.70
2022-11-05T00:18:58.471Z,51.61
2022-11-05T00:21:25.081Z,51.38
2022-11-05T00:23:51.766Z,51.25
2022-11-05T00:26:18.453Z,51.01
2022-11-05T00:28:45.064Z,51.31
2022-11-05T00:31:11.802Z,51.75
2022-11-05T00:33:38.431Z,51.56
2022-11-05T00:36:05.036Z,52.06
2022-11-05T00:38:31.676Z,51.00
2022-11-05T00:40:58.319Z,50.92
2022-11-05T00:43:24.967Z,51.72
2022-11-05T00:45:51.584Z,51.14
2022-11-05T00:48:18.210Z,51.98
2022-11-05T00:50:44.875Z,51.47
2022-11-05T00:53:11.777Z,51.32
2022-11-05T00:55:38.660Z,50.58
2022-11-05T00:58:05.300Z,50.85
2022-11-05T01:00:31.952Z,50.92
2022-11-05T01:02:58.580Z,51.22
2022-11-05T01:05:25.221Z,50.93
2022-11-05T01:07:51.871Z,50.69
2022-11-05T01:10:18.513Z,50.13
2022-11-05T01:12:45.163Z,50.30
2022-11-05T01:15:11.810Z,50.44
2022-11-05T01:17:38.687Z,50.31
2022-11-05T01:20:05.363Z,49.63
2022-11-05T01:22:32.033Z,49.44
2022-11-05T01:24:58.684Z,49.64
2022-11-05T01:27:25.312Z,50.30
2022-11-05T01:29:51.982Z,50.11
2022-11-05T01:32:18.652Z,50.42
2022-11-05T01:34:45.272Z,50.91
2022-11-05T01:37:11.962Z,50.95
2022-11-05T01:39:38.608Z,50.69
2022-11-05T01:42:05.244Z,51.12
2022-11-05T01:44:31.890Z,51.48
2022-11-05T01:46:58.523Z,52.19
2022-11-05T01:49:25.167Z,51.79
2022-11-05T01:51:51.864Z,51.71
2022-11-05T01:54:18.554Z,51.95
2022-11-05T01:56:45.166Z,51.84
2022-11-05T01:59:11.801Z,52.07
2022-11-05T02:01:38.740Z,52.08
2022-11-05T02:04:05.461Z,51.65
2022-11-05T02:06:32.093Z,51.30
2022-11-05T02:08:58.721Z,51.67
2022-11-05T02:11:25.385Z,51.65
2022-11-05T02:13:52.060Z,51.36
2022-11-05T02:16:18.726Z,51.40
2022-11-05T02:18:45.369Z,51.28
2022-11-05T02:21:12.430Z,51.41
2022-11-05T02:23:39.043Z,51.50
2022-11-05T02:26:05.706Z,52.33
2022-11-05T02:28:32.362Z,50.52
2022-11-05T02:30:58.998Z,50.96
2022-11-05T02:33:25.654Z,48.67
2022-11-05T02:35:52.301Z,49.90
2022-11-05T02:38:18.945Z,51.73
2022-11-05T02:40:45.636Z,51.89
2022-11-05T02:43:12.576Z,51.54
2022-11-05T02:45:39.492Z,52.57
2022-11-05T02:48:06.095Z,51.85
2022-11-05T02:50:32.951Z,52.34
2022-11-05T02:52:59.764Z,51.94
2022-11-05T02:55:26.359Z,51.89
2022-11-05T02:57:53.039Z,52.56
2022-11-05T03:00:19.693Z,52.46
2022-11-05T03:02:46.444Z,51.45
2022-11-05T03:05:13.388Z,50.60
2022-11-05T03:07:40.019Z,51.59
2022-11-05T03:10:06.690Z,51.77
2022-11-05T03:12:33.315Z,51.79
2022-11-05T03:15:00.068Z,51.75
2022-11-05T03:17:26.727Z,52.85
2022-11-05T03:19:53.384Z,52.29
2022-11-05T03:22:20.005Z,52.91
2022-11-05T03:24:46.672Z,52.77
2022-11-05T03:27:13.292Z,51.32
2022-11-05T03:29:39.932Z,51.51
2022-11-05T03:32:06.553Z,52.16
2022-11-05T03:34:33.171Z,52.03
2022-11-05T03:36:59.822Z,51.92
2022-11-05T03:39:26.443Z,52.35
2022-11-05T03:41:53.101Z,52.07
2022-11-05T03:44:19.703Z,52.56
2022-11-05T03:46:46.364Z,52.56
2022-11-05T03:49:12.992Z,51.92
2022-11-05T03:51:39.625Z,52.86
2022-11-05T03:54:06.286Z,52.37
2022-11-05T03:56:32.933Z,52.36
2022-11-05T03:58:59.612Z,52.02
2022-11-05T04:01:26.376Z,52.25
2022-11-05T04:03:53.167Z,52.29
2022-11-05T04:06:19.827Z,52.40
2022-11-05T04:08:46.471Z,52.85
2022-11-05T04:11:13.070Z,53.70
2022-11-05T04:13:39.731Z,53.72
2022-11-05T04:16:06.480Z,53.42
2022-11-05T04:18:33.099Z,53.11
2022-11-05T04:20:59.761Z,52.72
2022-11-05T04:23:26.453Z,52.79
2022-11-05T04:25:53.083Z,53.61
2022-11-05T04:28:19.762Z,53.91
2022-11-05T04:30:46.413Z,53.99
2022-11-05T04:33:13.300Z,53.99
2022-11-05T04:35:40.223Z,54.35
2022-11-05T04:38:06.856Z,53.91
2022-11-05T04:40:33.499Z,53.48
2022-11-05T04:43:00.134Z,53.43
2022-11-05T04:45:26.787Z,54.26
2022-11-05T04:47:53.433Z,53.84
2022-11-05T04:50:20.127Z,54.67
2022-11-05T04:52:46.776Z,54.44
2022-11-05T04:55:13.425Z,54.67
2022-11-05T04:57:40.084Z,54.47
2022-11-05T05:00:06.723Z,54.67
2022-11-05T05:02:33.336Z,54.94
2022-11-05T05:05:02.403Z,55.38
2022-11-05T05:07:29.115Z,54.78
2022-11-05T05:09:55.762Z,55.05
2022-11-05T05:12:22.494Z,54.78
2022-11-05T05:14:49.185Z,55.02
2022-11-05T05:17:15.811Z,55.07
2022-11-05T05:19:42.459Z,54.77
2022-11-05T05:22:09.126Z,54.73
2022-11-05T05:24:35.751Z,55.14
2022-11-05T05:27:02.431Z,55.52
2022-11-05T05:29:29.079Z,55.32
2022-11-05T05:31:55.744Z,54.92
2022-11-05T05:34:22.410Z,55.60
2022-11-05T05:36:49.146Z,55.59
2022-11-05T05:39:15.777Z,55.34
2022-11-05T05:41:42.421Z,55.65
2022-11-05T05:44:09.036Z,55.90
2022-11-05T05:46:35.682Z,55.76
2022-11-05T05:49:04.465Z,55.99
2022-11-05T05:51:33.401Z,55.87
2022-11-05T05:54:00.193Z,55.92
2022-11-05T05:56:26.861Z,56.16
2022-11-05T05:58:53.519Z,56.12
2022-11-05T06:01:20.397Z,56.65
2022-11-05T06:03:47.100Z,55.73
2022-11-05T06:06:13.760Z,56.59
2022-11-05T06:08:41.455Z,56.45
2022-11-05T06:11:08.232Z,55.85
2022-11-05T06:13:35.032Z,56.26
2022-11-05T06:16:01.719Z,56.62
2022-11-05T06:18:29.155Z,56.51
2022-11-05T06:20:56.079Z,55.74
2022-11-05T06:23:23.289Z,56.33
2022-11-05T06:25:49.996Z,55.59
2022-11-05T06:28:16.741Z,56.55
2022-11-05T06:30:43.611Z,56.31
2022-11-05T06:33:10.709Z,56.21
2022-11-05T06:35:37.749Z,56.76
2022-11-05T06:38:04.486Z,55.63
2022-11-05T06:40:31.705Z,54.39
2022-11-05T06:42:58.429Z,54.35
2022-11-05T06:45:25.246Z,54.10
2022-11-05T06:47:51.989Z,54.83
2022-11-05T06:50:18.827Z,54.46
2022-11-05T06:52:45.778Z,53.76
2022-11-05T06:55:12.889Z,52.61
2022-11-05T06:57:39.886Z,52.69
2022-11-05T07:00:08.146Z,52.59
2022-11-05T07:02:35.279Z,53.09
2022-11-05T07:05:01.953Z,51.18
2022-11-05T07:07:28.779Z,51.43
2022-11-05T07:09:55.678Z,51.28
2022-11-05T07:12:22.494Z,52.12
2022-11-05T07:14:49.207Z,51.02
2022-11-05T07:17:16.543Z,50.14
2022-11-05T07:19:43.206Z,50.11
2022-11-05T07:22:10.086Z,49.77
2022-11-05T07:24:36.966Z,49.81
2022-11-05T07:27:04.093Z,49.09
2022-11-05T07:29:30.901Z,49.64
2022-11-05T07:31:57.772Z,48.58
2022-11-05T07:34:24.565Z,48.17
2022-11-05T07:36:51.789Z,47.92
2022-11-05T07:39:18.634Z,47.83
2022-11-05T07:41:45.621Z,45.88
2022-11-05T07:44:12.606Z,46.35
2022-11-05T07:46:39.368Z,46.31
2022-11-05T07:49:06.099Z,47.06
2022-11-05T07:51:32.863Z,46.03
2022-11-05T07:53:59.811Z,46.36
2022-11-05T07:56:26.471Z,46.20
2022-11-05T07:58:54.212Z,45.87
2022-11-05T08:01:21.076Z,46.54
2022-11-05T08:03:47.982Z,45.65
2022-11-05T08:06:14.713Z,46.23
2022-11-05T08:08:41.672Z,45.41
2022-11-05T08:11:08.357Z,45.56
2022-11-05T08:13:34.997Z,45.74
2022-11-05T08:16:02.017Z,45.11
2022-11-05T08:18:28.788Z,44.85
2022-11-05T08:20:55.650Z,45.19
2022-11-05T08:23:22.407Z,45.22
2022-11-05T08:25:49.219Z,44.89
2022-11-05T08:28:15.894Z,44.26
2022-11-05T08:30:42.535Z,44.08
2022-11-05T08:33:09.567Z,44.39
2022-11-05T08:35:36.660Z,43.78
2022-11-05T08:38:03.481Z,45.73
2022-11-05T08:40:30.420Z,45.94
2022-11-05T08:42:57.326Z,46.19
2022-11-05T08:45:24.262Z,43.91
2022-11-05T08:47:51.549Z,44.63
2022-11-05T08:50:18.456Z,44.68
2022-11-05T08:52:45.218Z,43.65
2022-11-05T08:55:11.905Z,44.81
2022-11-05T08:57:38.568Z,44.00
2022-11-05T09:00:05.424Z,44.46
2022-11-05T09:02:32.148Z,43.53
2022-11-05T09:04:58.906Z,43.40
2022-11-05T09:07:25.605Z,43.08
2022-11-05T09:09:52.268Z,42.95
2022-11-05T09:12:18.962Z,42.68
2022-11-05T09:14:45.653Z,43.03
2022-11-05T09:17:12.543Z,42.66
2022-11-05T09:19:39.948Z,42.44
2022-11-05T09:22:06.915Z,42.77
2022-11-05T09:24:33.551Z,41.65
2022-11-05T09:27:00.435Z,41.80
2022-11-05T09:29:27.319Z,42.96
2022-11-05T09:31:53.960Z,41.38
2022-11-05T09:34:20.975Z,42.26
2022-11-05T09:36:47.630Z,41.86
2022-11-05T09:39:14.310Z,41.00
2022-11-05T09:41:41.012Z,41.91
2022-11-05T09:44:07.666Z,41.28
2022-11-05T09:46:34.364Z,41.16
2022-11-05T09:49:01.238Z,41.00
2022-11-05T09:51:28.148Z,41.37
2022-11-05T09:53:55.065Z,41.20
2022-11-05T09:56:22.080Z,41.18
2022-11-05T09:58:48.737Z,41.92
2022-11-05T10:01:15.990Z,41.90
2022-11-05T10:03:42.749Z,42.18
2022-11-05T10:06:09.607Z,41.21
2022-11-05T10:08:38.445Z,42.06
2022-11-05T10:11:05.172Z,41.88
2022-11-05T10:13:31.830Z,42.23
2022-11-05T10:15:58.531Z,43.27
2022-11-05T10:18:25.172Z,41.78
2022-11-05T10:20:51.832Z,42.08
2022-11-05T10:23:18.484Z,41.50
2022-11-05T10:25:45.273Z,41.68
2022-11-05T10:28:12.162Z,41.31
2022-11-05T10:30:38.826Z,41.51
2022-11-05T10:33:05.454Z,41.74
2022-11-05T10:35:32.186Z,40.36
2022-11-05T10:37:58.808Z,40.78
2022-11-05T10:40:25.524Z,41.83
2022-11-05T10:42:52.173Z,40.52
2022-11-05T10:45:18.906Z,40.86
2022-11-05T10:47:45.557Z,41.95
2022-11-05T10:50:12.212Z,41.67
2022-11-05T10:52:38.877Z,41.27
2022-11-05T10:55:05.599Z,40.97
2022-11-05T10:57:32.284Z,40.55
2022-11-05T10:59:59.172Z,40.77
2022-11-05T11:02:26.197Z,40.27
2022-11-05T11:04:52.998Z,40.65
2022-11-05T11:07:19.659Z,39.71
2022-11-05T11:09:46.271Z,39.90
2022-11-05T11:12:12.927Z,41.00
2022-11-05T11:14:39.567Z,40.49
2022-11-05T11:17:06.220Z,40.18
2022-11-05T11:19:32.846Z,39.77
2022-11-05T11:21:59.485Z,39.34
2022-11-05T11:24:30.987Z,40.43
2022-11-05T11:26:59.956Z,39.50
2022-11-05T11:29:26.641Z,40.98
2022-11-05T11:31:53.296Z,40.18
2022-11-05T11:34:20.001Z,39.61
2022-11-05T11:36:46.628Z,39.13
2022-11-05T11:39:13.348Z,39.71
2022-11-05T11:41:39.961Z,40.07
2022-11-05T11:44:06.660Z,39.54
2022-11-05T11:46:33.329Z,40.88
2022-11-05T11:48:59.970Z,40.57
2022-11-05T11:51:26.615Z,40.18
2022-11-05T11:53:53.488Z,39.99
2022-11-05T11:56:20.143Z,40.38
2022-11-05T11:58:46.806Z,40.45
2022-11-05T12:01:13.427Z,39.75
2022-11-05T12:03:40.063Z,39.99
2022-11-05T12:06:06.706Z,39.19
2022-11-05T12:08:33.384Z,40.49
2022-11-05T12:11:00.086Z,39.68
2022-11-05T12:13:26.715Z,39.55
2022-11-05T12:15:53.396Z,39.46
2022-11-05T12:18:20.070Z,39.51
2022-11-05T12:20:48.353Z,39.07
2022-11-05T12:23:15.625Z,38.63
2022-11-05T12:25:42.448Z,38.04
2022-11-05T12:28:09.529Z,38.78
2022-11-05T12:30:36.221Z,38.69
2022-11-05T12:33:04.121Z,38.31
2022-11-05T12:35:31.972Z,39.86
2022-11-05T12:37:58.618Z,39.34
2022-11-05T12:40:25.255Z,39.72
2022-11-05T12:42:51.923Z,40.21
2022-11-05T12:45:18.551Z,39.87
2022-11-05T12:47:45.340Z,39.18
2022-11-05T12:50:13.359Z,39.97
2022-11-05T12:52:40.241Z,39.65
2022-11-05T12:55:06.895Z,38.89
2022-11-05T12:57:33.545Z,39.30
2022-11-05T13:00:00.417Z,37.88
2022-11-05T13:02:27.145Z,40.87
2022-11-05T13:04:53.862Z,40.34
2022-11-05T13:07:20.496Z,40.28
2022-11-05T13:09:47.173Z,38.90
2022-11-05T13:12:13.848Z,40.55
2022-11-05T13:14:40.475Z,39.89
2022-11-05T13:17:07.156Z,39.03
2022-11-05T13:19:33.796Z,39.03
2022-11-05T13:22:00.444Z,38.73
2022-11-05T13:24:28.053Z,39.39
2022-11-05T13:26:54.879Z,38.87
2022-11-05T13:29:21.515Z,39.94
2022-11-05T13:31:48.162Z,40.08
2022-11-05T13:34:14.789Z,38.80
2022-11-05T13:36:41.444Z,39.26
2022-11-05T13:39:08.079Z,39.54
2022-11-05T13:41:34.718Z,39.49
2022-11-05T13:44:01.414Z,39.28
2022-11-05T13:46:28.039Z,39.56
2022-11-05T13:48:54.671Z,39.92
2022-11-05T13:51:21.374Z,39.84
2022-11-05T13:53:48.040Z,39.95
2022-11-05T13:56:14.713Z,39.71
2022-11-05T13:58:41.397Z,39.55
2022-11-05T14:01:08.090Z,40.55
2022-11-05T14:03:34.980Z,40.98
2022-11-05T14:06:01.668Z,40.29
2022-11-05T14:08:28.369Z,40.51
2022-11-05T14:10:55.048Z,40.40
2022-11-05T14:13:21.706Z,40.94
2022-11-05T14:15:48.637Z,40.80
2022-11-05T14:18:15.306Z,39.93
2022-11-05T14:20:41.970Z,40.67
2022-11-05T14:23:09.907Z,40.07
2022-11-05T14:25:36.808Z,40.02
2022-11-05T14:28:03.508Z,39.53
2022-11-05T14:30:30.305Z,39.88
2022-11-05T14:32:56.985Z,39.70
2022-11-05T14:35:23.686Z,40.19
2022-11-05T14:37:50.338Z,39.80
2022-11-05T14:40:17.058Z,39.63
2022-11-05T14:42:43.765Z,39.96
2022-11-05T14:45:10.646Z,40.31
2022-11-05T14:47:37.590Z,40.05
2022-11-05T14:50:04.237Z,39.63
2022-11-05T14:52:30.897Z,38.91
2022-11-05T14:54:57.770Z,39.69
2022-11-05T14:57:24.397Z,40.00
2022-11-05T14:59:51.065Z,39.25
2022-11-05T15:02:17.791Z,39.06
2022-11-05T15:04:44.513Z,39.21
2022-11-05T15:07:11.159Z,40.28
2022-11-05T15:09:37.841Z,40.35
2022-11-05T15:12:04.524Z,40.82
2022-11-05T15:14:31.215Z,39.49
2022-11-05T15:16:57.871Z,40.38
2022-11-05T15:19:24.523Z,40.84
2022-11-05T15:21:51.180Z,39.77
2022-11-05T15:27:02.155Z,41.54
2022-11-05T15:29:28.873Z,41.45
2022-11-05T15:31:55.600Z,40.93
2022-11-05T15:34:22.329Z,40.65
2022-11-05T15:36:49.001Z,41.29
2022-11-05T15:39:29.179Z,40.87
2022-11-05T15:41:56.561Z,41.36
2022-11-05T15:44:23.239Z,41.22
2022-11-05T15:46:49.931Z,41.02
2022-11-05T15:49:16.614Z,41.28
2022-11-05T15:51:43.267Z,41.27
2022-11-05T15:54:29.618Z,42.13
2022-11-05T15:56:56.657Z,42.00
2022-11-05T15:59:23.298Z,42.19
2022-11-05T16:01:50.129Z,42.21
2022-11-05T16:04:16.957Z,42.58
2022-11-05T16:06:43.601Z,42.49
2022-11-05T16:09:10.214Z,43.33
2022-11-05T16:11:36.889Z,43.81
2022-11-05T16:14:03.517Z,42.64
2022-11-05T16:16:30.249Z,43.43
2022-11-05T16:18:56.922Z,43.82
2022-11-05T16:21:23.567Z,43.88
2022-11-05T16:23:50.199Z,43.82
2022-11-05T16:26:29.786Z,45.02
2022-11-05T16:29:03.505Z,44.49
2022-11-05T16:31:30.186Z,44.21
2022-11-05T16:33:57.094Z,44.80
2022-11-05T16:36:23.729Z,44.87
2022-11-05T16:38:50.370Z,44.99
2022-11-05T16:41:16.993Z,45.88
2022-11-05T16:43:43.659Z,45.70
2022-11-05T16:46:10.413Z,45.98
2022-11-05T16:48:37.139Z,47.08
2022-11-05T16:51:03.792Z,46.63
2022-11-05T16:53:30.440Z,46.73
2022-11-05T16:55:57.065Z,46.87
2022-11-05T16:58:23.722Z,47.15
2022-11-05T17:00:50.379Z,46.93
2022-11-05T17:03:17.238Z,47.01
2022-11-05T17:05:43.872Z,46.86
2022-11-05T17:08:10.984Z,46.01
2022-11-05T17:10:37.969Z,46.48
2022-11-05T17:13:04.581Z,46.52
2022-11-05T17:15:31.227Z,46.99
2022-11-05T17:17:58.029Z,46.92
2022-11-05T17:20:24.741Z,46.58
2022-11-05T17:22:51.392Z,46.51
2022-11-05T17:25:18.109Z,45.99
2022-11-05T17:27:44.758Z,46.51
2022-11-05T17:30:11.379Z,46.34
2022-11-05T17:32:38.130Z,46.81
2022-11-05T17:35:04.790Z,47.63
2022-11-05T17:37:31.480Z,47.33
2022-11-05T17:39:58.362Z,47.97
2022-11-05T17:42:25.109Z,48.38
2022-11-05T17:44:51.774Z,47.84
2022-11-05T17:47:18.436Z,48.11
2022-11-05T17:49:45.139Z,48.01
2022-11-05T17:52:11.818Z,47.61
2022-11-05T17:54:38.547Z,48.14
2022-11-05T17:57:05.247Z,48.00
2022-11-05T17:59:31.883Z,48.30
2022-11-05T18:01:58.640Z,47.53
2022-11-05T18:04:25.385Z,47.66
2022-11-05T18:06:51.998Z,47.17
2022-11-05T18:09:18.647Z,48.07
2022-11-05T18:11:45.369Z,47.98
2022-11-05T18:14:12.049Z,48.77
2022-11-05T18:16:38.658Z,48.56
2022-11-05T18:19:05.279Z,48.73
2022-11-05T18:21:32.219Z,48.79
2022-11-05T18:23:59.196Z,49.08
2022-11-05T18:26:25.933Z,49.06
2022-11-05T18:28:52.580Z,49.19
2022-11-05T18:31:19.251Z,49.15
2022-11-05T18:33:45.877Z,49.56
2022-11-05T18:36:12.512Z,49.18
2022-11-05T18:38:39.162Z,49.31
2022-11-05T18:41:05.811Z,49.73
2022-11-05T18:43:32.480Z,49.95
2022-11-05T18:45:59.197Z,50.59
2022-11-05T18:48:25.832Z,50.60
2022-11-05T18:50:53.205Z,50.80
2022-11-05T18:53:22.093Z,51.49
2022-11-05T18:55:48.798Z,51.75
2022-11-05T18:58:15.541Z,51.85
2022-11-05T19:00:42.366Z,52.19
2022-11-05T19:03:09.031Z,53.41
2022-11-05T19:05:35.669Z,53.60
2022-11-05T19:08:02.279Z,53.28
2022-11-05T19:10:28.922Z,53.10
2022-11-05T19:12:55.598Z,53.31
2022-11-05T19:15:22.257Z,53.50
2022-11-05T19:17:49.125Z,53.84
2022-11-05T19:20:15.807Z,54.40
2022-11-05T19:22:42.455Z,53.95
2022-11-05T19:25:09.081Z,54.56
2022-11-05T19:27:35.740Z,54.54
2022-11-05T19:30:02.441Z,54.49
2022-11-05T19:32:29.115Z,54.70
2022-11-05T19:34:55.758Z,56.34
2022-11-05T19:37:22.411Z,56.26
2022-11-05T19:39:49.041Z,55.48
2022-11-05T19:42:15.685Z,56.51
2022-11-05T19:44:42.327Z,56.14
2022-11-05T19:47:08.971Z,56.68
2022-11-05T19:49:35.616Z,56.10
2022-11-05T19:52:02.275Z,56.90
2022-11-05T19:54:29.021Z,57.63
2022-11-05T19:56:55.676Z,56.71
2022-11-05T19:59:22.294Z,56.36
2022-11-05T20:01:49.105Z,56.65
2022-11-05T20:04:15.838Z,56.16
2022-11-05T20:06:42.498Z,56.82
2022-11-05T20:09:24.502Z,56.39
2022-11-05T20:11:51.130Z,56.77
2022-11-05T20:14:17.871Z,57.04
2022-11-05T20:16:44.509Z,56.61
2022-11-05T20:19:11.147Z,57.47
2022-11-05T20:21:37.790Z,57.26
2022-11-05T20:24:04.652Z,57.44
2022-11-05T20:26:31.352Z,56.82
2022-11-05T20:28:58.070Z,57.06
2022-11-05T20:31:24.727Z,57.47
2022-11-05T20:33:51.436Z,56.50
2022-11-05T20:36:18.082Z,56.77
2022-11-05T20:38:44.760Z,57.06
2022-11-05T20:41:11.411Z,57.04
2022-11-05T20:43:38.055Z,57.05
2022-11-05T20:46:04.705Z,57.60
2022-11-05T20:48:31.338Z,58.05
2022-11-05T20:50:57.981Z,57.70
2022-11-05T20:53:24.672Z,57.40
2022-11-05T20:55:51.716Z,57.73
2022-11-05T20:58:18.363Z,58.38
2022-11-05T21:00:45.012Z,57.56
2022-11-05T21:03:11.647Z,58.15
2022-11-05T21:05:38.342Z,58.25
2022-11-05T21:08:04.986Z,58.90
2022-11-05T21:10:31.646Z,59.89
2022-11-05T21:12:58.388Z,58.50
2022-11-05T21:15:25.034Z,57.92
2022-11-05T21:17:51.645Z,58.50
2022-11-05T21:20:18.360Z,58.63
2022-11-05T21:22:44.993Z,57.97
2022-11-05T21:25:11.670Z,58.30
2022-11-05T21:27:42.571Z,58.75
2022-11-05T21:30:10.291Z,59.35
2022-11-05T21:32:36.925Z,58.68
2022-11-05T21:35:03.709Z,58.79
2022-11-05T21:37:30.373Z,58.49
2022-11-05T21:39:57.033Z,58.34
2022-11-05T21:42:23.765Z,58.35
2022-11-05T21:44:50.383Z,58.94
2022-11-05T21:47:17.040Z,59.55
2022-11-05T21:49:43.745Z,59.03
2022-11-05T21:52:10.386Z,58.75
2022-11-05T21:54:37.062Z,59.45
2022-11-05T21:57:08.220Z,59.12
2022-11-05T21:59:37.232Z,59.93
2022-11-05T22:02:03.991Z,60.59
2022-11-05T22:04:30.786Z,59.83
2022-11-05T22:06:57.458Z,60.21
2022-11-05T22:09:24.090Z,59.56
2022-11-05T22:11:50.780Z,60.09
2022-11-05T22:14:17.409Z,60.63
2022-11-05T22:16:44.063Z,60.35
2022-11-05T22:19:10.677Z,60.78
2022-11-05T22:21:37.415Z,60.63
2022-11-05T22:24:04.015Z,60.44
2022-11-05T22:26:30.904Z,60.16
2022-11-05T22:28:57.519Z,59.54
2022-11-05T22:31:24.192Z,60.18
2022-11-05T22:33:50.844Z,59.68
2022-11-05T22:36:17.481Z,59.50
2022-11-05T22:38:44.125Z,59.45
2022-11-05T22:41:10.775Z,58.94
2022-11-05T22:43:37.518Z,59.31
2022-11-05T22:46:04.141Z,60.03
2022-11-05T22:48:30.814Z,59.92
2022-11-05T22:50:57.462Z,60.69
2022-11-05T22:53:24.119Z,60.30
2022-11-05T22:55:50.963Z,61.11
2022-11-05T22:58:17.600Z,61.10
2022-11-05T23:00:44.238Z,61.05
2022-11-05T23:03:10.955Z,60.53
2022-11-05T23:05:37.671Z,60.68
2022-11-05T23:08:04.359Z,61.19
2022-11-05T23:10:30.962Z,60.75
2022-11-05T23:12:57.817Z,61.60
2022-11-05T23:15:24.459Z,61.49
2022-11-05T23:17:51.112Z,61.56
2022-11-05T23:20:17.800Z,61.10
2022-11-05T23:22:44.428Z,60.52
2022-11-05T23:25:11.076Z,61.74
2022-11-05T23:27:37.683Z,61.41
2022-11-05T23:30:04.312Z,61.43
2022-11-05T23:32:31.155Z,60.81
2022-11-05T23:34:57.787Z,60.73
2022-11-05T23:37:24.407Z,60.99
2022-11-05T23:39:51.039Z,60.06
2022-11-05T23:42:17.698Z,61.22
2022-11-05T23:44:44.327Z,62.01
2022-11-05T23:47:10.947Z,61.64
2022-11-05T23:49:37.590Z,61.11
2022-11-05T23:52:04.210Z,62.51
2022-11-05T23:54:30.872Z,61.76
2022-11-05T23:56:57.491Z,61.48
2022-11-05T23:59:24.149Z,61.07
